Time,TemperatureF,DewpointF,PressureIn,WindDirection,WindDirectionDegrees,WindSpeedMPH,WindSpeedGustMPH,Humidity,HourlyPrecipIn,Conditions,Clouds,dailyrainin,SolarRadiationWatts/m^2,SoftwareType,DateUTC
2013-02-19 00:02:00,52.0,25.0,-100.00,SSW,195,18.0,29.0,34,0.00,,,0.00,0.000000,,2013-02-19 05:02:00,
2013-02-19 00:33:00,52.0,25.0,-100.00,SSW,196,16.0,35.0,34,0.00,,,0.00,0.000000,,2013-02-19 05:33:00,
2013-02-19 00:43:00,52.0,25.0,-100.00,SSW,196,16.0,35.0,34,0.00,,,0.00,0.000000,,2013-02-19 05:43:00,
2013-02-19 00:52:00,52.0,25.0,-100.00,SSW,196,16.0,35.0,34,0.00,,,0.00,0.000000,,2013-02-19 05:52:00,
2013-02-19 01:03:00,52.0,25.0,-100.00,SSW,196,16.0,35.0,34,0.00,,,0.00,0.000000,,2013-02-19 06:03:00,
2013-02-19 01:33:00,49.0,29.0,-100.00,SSW,204,13.0,31.0,46,0.00,,,-99.99,0.000000,,2013-02-19 06:33:00,
2013-02-19 01:42:00,49.0,29.0,-100.00,SSW,204,13.0,31.0,46,0.00,,,-99.99,0.000000,,2013-02-19 06:42:00,
2013-02-19 01:53:00,49.0,29.0,-100.00,SSW,204,13.0,31.0,46,0.00,,,-99.99,0.000000,,2013-02-19 06:53:00,
2013-02-19 02:02:00,49.0,29.0,-100.00,SSW,204,13.0,31.0,46,0.00,,,-99.99,0.000000,,2013-02-19 07:02:00,
2013-02-19 02:33:00,42.0,37.0,-100.00,SW,216,2.0,19.0,83,0.08,,,0.08,0.000000,,2013-02-19 07:33:00,
2013-02-19 02:42:00,42.0,37.0,-100.00,SW,216,2.0,19.0,83,0.08,,,0.08,0.000000,,2013-02-19 07:42:00,
2013-02-19 02:52:00,42.0,37.0,-100.00,SW,216,2.0,19.0,83,0.08,,,0.08,0.000000,,2013-02-19 07:52:00,
2013-02-19 03:02:00,42.0,37.0,-100.00,SW,216,2.0,19.0,83,0.08,,,0.08,0.000000,,2013-02-19 08:02:00,
2013-02-19 03:32:00,41.0,37.0,-100.00,SSW,206,6.0,13.0,86,0.13,,,0.21,0.000000,,2013-02-19 08:32:00,
2013-02-19 03:42:00,41.0,37.0,-100.00,SSW,206,6.0,13.0,86,0.13,,,0.21,0.000000,,2013-02-19 08:42:00,
2013-02-19 03:52:00,41.0,37.0,-100.00,SSW,206,6.0,13.0,86,0.13,,,0.21,0.000000,,2013-02-19 08:52:00,
2013-02-19 04:02:00,41.0,37.0,-100.00,SSW,206,6.0,13.0,86,0.13,,,0.21,0.000000,,2013-02-19 09:02:00,
2013-02-19 04:32:00,40.0,37.0,-100.00,South,190,10.0,17.0,88,0.04,,,0.25,0.000000,,2013-02-19 09:32:00,
2013-02-19 04:42:00,40.0,37.0,-100.00,South,190,10.0,17.0,88,0.04,,,0.25,0.000000,,2013-02-19 09:42:00,
2013-02-19 04:53:00,40.0,37.0,-100.00,South,190,10.0,17.0,88,0.04,,,0.25,0.000000,,2013-02-19 09:53:00,
2013-02-19 05:02:00,40.0,37.0,-100.00,South,190,10.0,17.0,88,0.04,,,0.25,0.000000,,2013-02-19 10:02:00,
2013-02-19 05:32:00,41.0,36.0,-100.00,SSW,201,9.0,21.0,83,0.00,,,0.25,0.000000,,2013-02-19 10:32:00,
2013-02-19 05:42:00,41.0,36.0,-100.00,SSW,201,9.0,21.0,83,0.00,,,0.25,0.000000,,2013-02-19 10:42:00,
2013-02-19 05:52:00,41.0,36.0,-100.00,SSW,201,9.0,21.0,83,0.00,,,0.25,0.000000,,2013-02-19 10:52:00,
2013-02-19 06:01:00,41.0,36.0,-100.00,SSW,201,9.0,21.0,83,0.00,,,0.25,0.000000,,2013-02-19 11:01:00,
2013-02-19 06:32:00,41.0,37.0,-100.00,SSW,209,7.0,15.0,86,0.00,,,0.25,0.000000,,2013-02-19 11:32:00,
2013-02-19 06:42:00,41.0,37.0,-100.00,SSW,209,7.0,15.0,86,0.00,,,0.25,0.000000,,2013-02-19 11:42:00,
2013-02-19 06:52:00,41.0,37.0,-100.00,SSW,209,7.0,15.0,86,0.00,,,0.25,0.000000,,2013-02-19 11:52:00,
2013-02-19 07:02:00,41.0,37.0,-100.00,SSW,209,7.0,15.0,86,0.00,,,0.25,0.000000,,2013-02-19 12:02:00,
2013-02-19 07:33:00,40.0,37.0,-100.00,SSW,211,9.0,13.0,90,0.02,,,0.27,0.000000,,2013-02-19 12:33:00,
2013-02-19 07:42:00,40.0,37.0,-100.00,SSW,211,9.0,13.0,90,0.02,,,0.27,0.000000,,2013-02-19 12:42:00,
2013-02-19 07:53:00,40.0,37.0,-100.00,SSW,211,9.0,13.0,90,0.02,,,0.27,0.000000,,2013-02-19 12:53:00,
2013-02-19 08:02:00,40.0,37.0,-100.00,SSW,211,9.0,13.0,90,0.02,,,0.27,0.000000,,2013-02-19 13:02:00,
2013-02-19 08:32:00,40.0,38.0,-100.00,SW,219,9.0,13.0,93,0.01,,,0.28,3.000000,,2013-02-19 13:32:00,
2013-02-19 08:42:00,40.0,38.0,-100.00,SW,219,9.0,13.0,93,0.01,,,0.28,3.000000,,2013-02-19 13:42:00,
2013-02-19 08:52:00,40.0,38.0,-100.00,SW,219,9.0,13.0,93,0.01,,,0.28,3.000000,,2013-02-19 13:52:00,
2013-02-19 09:02:00,40.0,38.0,-100.00,SW,219,9.0,13.0,93,0.01,,,0.28,3.000000,,2013-02-19 14:02:00,
2013-02-19 09:33:00,41.0,39.0,-100.00,SSW,206,9.0,15.0,94,0.00,,,0.28,23.000000,,2013-02-19 14:33:00,
2013-02-19 09:42:00,41.0,39.0,-100.00,SSW,206,9.0,15.0,94,0.00,,,0.28,23.000000,,2013-02-19 14:42:00,
2013-02-19 09:52:00,41.0,39.0,-100.00,SSW,206,9.0,15.0,94,0.00,,,0.28,23.000000,,2013-02-19 14:52:00,
2013-02-19 10:02:00,41.0,39.0,-100.00,SSW,206,9.0,15.0,94,0.00,,,0.28,23.000000,,2013-02-19 15:02:00,
2013-02-19 10:32:00,42.0,40.0,-100.00,SW,219,7.0,14.0,93,0.00,,,0.28,61.000000,,2013-02-19 15:32:00,
2013-02-19 10:42:00,42.0,40.0,-100.00,SW,219,7.0,14.0,93,0.00,,,0.28,61.000000,,2013-02-19 15:42:00,
2013-02-19 10:52:00,42.0,40.0,-100.00,SW,219,7.0,14.0,93,0.00,,,0.28,61.000000,,2013-02-19 15:52:00,
2013-02-19 11:02:00,42.0,40.0,-100.00,SW,219,7.0,14.0,93,0.00,,,0.28,61.000000,,2013-02-19 16:02:00,
2013-02-19 12:32:00,49.0,38.0,-100.00,WNW,285,5.0,13.0,65,-99.99,,,0.28,404.000000,,2013-02-19 17:32:00,
2013-02-19 12:42:00,49.0,38.0,-100.00,WNW,285,5.0,13.0,65,-99.99,,,0.28,404.000000,,2013-02-19 17:42:00,
2013-02-19 12:52:00,49.0,38.0,-100.00,WNW,285,5.0,13.0,65,-99.99,,,0.28,404.000000,,2013-02-19 17:52:00,
2013-02-19 13:02:00,49.0,38.0,-100.00,WNW,285,5.0,13.0,65,-99.99,,,0.28,404.000000,,2013-02-19 18:02:00,
2013-02-19 13:32:00,54.0,31.0,-100.00,West,270,7.0,15.0,42,0.00,,,0.28,508.000000,,2013-02-19 18:32:00,
2013-02-19 13:42:00,54.0,31.0,-100.00,West,270,7.0,15.0,42,0.00,,,0.28,508.000000,,2013-02-19 18:42:00,
2013-02-19 13:52:00,54.0,31.0,-100.00,West,270,7.0,15.0,42,0.00,,,0.28,508.000000,,2013-02-19 18:52:00,
2013-02-19 14:01:00,54.0,31.0,-100.00,West,270,7.0,15.0,42,0.00,,,0.28,508.000000,,2013-02-19 19:01:00,
2013-02-19 14:32:00,56.0,26.0,-100.00,West,267,9.0,18.0,31,0.00,,,0.28,696.000000,,2013-02-19 19:32:00,
2013-02-19 15:02:00,56.0,26.0,-100.00,West,267,9.0,18.0,31,0.00,,,0.28,696.000000,,2013-02-19 20:02:00,
2013-02-19 15:32:00,55.0,18.0,-100.00,WSW,255,10.0,22.0,23,0.00,,,-99.99,632.000000,,2013-02-19 20:32:00,
2013-02-19 15:42:00,55.0,18.0,-100.00,WSW,255,10.0,22.0,23,0.00,,,-99.99,632.000000,,2013-02-19 20:42:00,
2013-02-19 15:52:00,55.0,18.0,-100.00,WSW,255,10.0,22.0,23,0.00,,,-99.99,632.000000,,2013-02-19 20:52:00,
2013-02-19 16:02:00,55.0,18.0,-100.00,WSW,255,10.0,22.0,23,0.00,,,-99.99,632.000000,,2013-02-19 21:02:00,
2013-02-19 16:32:00,54.0,15.0,-100.00,WSW,254,11.0,20.0,21,0.00,,,0.28,508.000000,,2013-02-19 21:32:00,
2013-02-19 16:42:00,54.0,15.0,-100.00,WSW,254,11.0,20.0,21,0.00,,,0.28,508.000000,,2013-02-19 21:42:00,
2013-02-19 16:52:00,54.0,15.0,-100.00,WSW,254,11.0,20.0,21,0.00,,,0.28,508.000000,,2013-02-19 21:52:00,
2013-02-19 17:02:00,54.0,15.0,-100.00,WSW,254,11.0,20.0,21,0.00,,,0.28,508.000000,,2013-02-19 22:02:00,
2013-02-19 17:32:00,53.0,13.0,-100.00,West,275,6.0,19.0,20,0.00,,,-99.99,344.000000,,2013-02-19 22:32:00,
2013-02-19 17:42:00,53.0,13.0,-100.00,West,275,6.0,19.0,20,0.00,,,-99.99,344.000000,,2013-02-19 22:42:00,
2013-02-19 17:52:00,53.0,13.0,-100.00,West,275,6.0,19.0,20,0.00,,,-99.99,344.000000,,2013-02-19 22:52:00,
2013-02-19 18:01:00,53.0,13.0,-100.00,West,275,6.0,19.0,20,0.00,,,-99.99,344.000000,,2013-02-19 23:01:00,
2013-02-19 18:32:00,49.0,12.0,-100.00,NW,305,6.0,16.0,22,0.00,,,0.28,153.000000,,2013-02-19 23:32:00,
2013-02-19 18:42:00,49.0,12.0,-100.00,NW,305,6.0,16.0,22,0.00,,,0.28,153.000000,,2013-02-19 23:42:00,
2013-02-19 18:52:00,49.0,12.0,-100.00,NW,305,6.0,16.0,22,0.00,,,0.28,153.000000,,2013-02-19 23:52:00,
2013-02-19 19:02:00,49.0,12.0,-100.00,NW,305,6.0,16.0,22,0.00,,,0.28,153.000000,,2013-02-20 00:02:00,
2013-02-19 19:32:00,45.0,12.0,-100.00,NW,316,3.0,14.0,26,0.00,,,0.28,5.000000,,2013-02-20 00:32:00,
2013-02-19 19:42:00,45.0,12.0,-100.00,NW,316,3.0,14.0,26,0.00,,,0.28,5.000000,,2013-02-20 00:42:00,
2013-02-19 19:52:00,45.0,12.0,-100.00,NW,316,3.0,14.0,26,0.00,,,0.28,5.000000,,2013-02-20 00:52:00,
2013-02-19 20:02:00,45.0,12.0,-100.00,NW,316,3.0,14.0,26,0.00,,,0.28,5.000000,,2013-02-20 01:02:00,
2013-02-19 20:32:00,41.0,15.0,-100.00,WSW,239,2.0,7.0,34,0.00,,,0.28,0.000000,,2013-02-20 01:32:00,
2013-02-19 20:42:00,41.0,15.0,-100.00,WSW,239,2.0,7.0,34,0.00,,,0.28,0.000000,,2013-02-20 01:42:00,
2013-02-19 20:52:00,41.0,15.0,-100.00,WSW,239,2.0,7.0,34,0.00,,,0.28,0.000000,,2013-02-20 01:52:00,
2013-02-19 21:02:00,41.0,15.0,-100.00,WSW,239,2.0,7.0,34,0.00,,,0.28,0.000000,,2013-02-20 02:02:00,
2013-02-19 21:32:00,41.0,14.0,-100.00,NW,304,2.0,7.0,33,0.00,,,0.28,0.000000,,2013-02-20 02:32:00,
2013-02-19 21:42:00,41.0,14.0,-100.00,NW,304,2.0,7.0,33,0.00,,,0.28,0.000000,,2013-02-20 02:42:00,
2013-02-19 21:52:00,41.0,14.0,-100.00,NW,304,2.0,7.0,33,0.00,,,0.28,0.000000,,2013-02-20 02:52:00,
2013-02-19 22:02:00,41.0,14.0,-100.00,NW,304,2.0,7.0,33,0.00,,,0.28,0.000000,,2013-02-20 03:02:00,
2013-02-19 22:32:00,40.0,14.0,-100.00,NW,304,5.0,11.0,34,0.00,,,0.28,0.000000,,2013-02-20 03:32:00,
2013-02-19 22:42:00,40.0,14.0,-100.00,NW,304,5.0,11.0,34,0.00,,,0.28,0.000000,,2013-02-20 03:42:00,
2013-02-19 22:52:00,40.0,14.0,-100.00,NW,304,5.0,11.0,34,0.00,,,0.28,0.000000,,2013-02-20 03:52:00,
2013-02-19 23:01:00,40.0,14.0,-100.00,NW,304,5.0,11.0,34,0.00,,,0.28,0.000000,,2013-02-20 04:01:00,
2013-02-19 23:32:00,37.0,16.0,-100.00,NW,304,1.0,6.0,41,0.00,,,0.28,0.000000,,2013-02-20 04:32:00,
2013-02-19 23:42:00,37.0,16.0,-100.00,NW,304,1.0,6.0,41,0.00,,,0.28,0.000000,,2013-02-20 04:42:00,
2013-02-19 23:52:00,37.0,16.0,-100.00,NW,304,1.0,6.0,41,0.00,,,0.28,0.000000,,2013-02-20 04:52:00,